createdAt,value
2023-05-11T03:17:07.120Z,94.7
2023-05-11T03:32:41.572Z,94.6
2023-05-11T03:48:15.743Z,94.9
2023-05-11T04:03:50.588Z,94.9
2023-05-11T04:19:25.065Z,94.6
2023-05-11T04:34:59.159Z,94.2
2023-05-11T04:50:33.227Z,93
2023-05-11T05:06:07.279Z,93.8
2023-05-11T05:21:41.344Z,93.7
2023-05-11T05:37:15.442Z,93.9
2023-05-11T05:52:49.624Z,93.9
2023-05-11T06:08:36.194Z,92.2
2023-05-11T06:24:10.410Z,91.6
2023-05-11T06:39:44.621Z,89
2023-05-11T06:55:18.743Z,90.7
2023-05-11T07:10:53.115Z,89.5
2023-05-11T07:26:27.521Z,88.9
2023-05-11T07:42:01.750Z,89
2023-05-11T07:57:35.985Z,89.5
2023-05-11T08:13:10.113Z,89.4
2023-05-11T08:28:44.283Z,88.5
2023-05-11T08:44:18.590Z,84.9
2023-05-11T08:59:52.739Z,79.8
2023-05-11T09:15:36.804Z,77.2
2023-05-11T09:31:12.228Z,76.5
2023-05-11T09:46:47.003Z,79.1
2023-05-11T10:02:21.854Z,74.6
2023-05-11T10:17:56.474Z,74.4
2023-05-11T10:33:30.926Z,68.8
2023-05-11T10:49:05.117Z,66.6
2023-05-11T11:04:39.351Z,62
2023-05-11T11:20:13.770Z,59.3
2023-05-11T11:35:47.995Z,61
2023-05-11T11:51:22.182Z,57.8
2023-05-11T12:06:56.396Z,58.9
2023-05-11T12:22:30.607Z,57.2
2023-05-11T12:38:04.907Z,58.6
2023-05-11T12:53:39.123Z,55.8
2023-05-11T13:09:13.381Z,64.7
2023-05-11T13:24:47.552Z,68.8
2023-05-11T13:40:21.719Z,68
2023-05-11T13:55:55.903Z,65.5
2023-05-11T14:11:30.078Z,65.1
2023-05-11T14:27:04.314Z,69.9
2023-05-11T14:42:38.592Z,65.9
2023-05-11T14:58:12.876Z,63.9
2023-05-11T15:13:48.997Z,64.7
2023-05-11T15:29:23.323Z,67
2023-05-11T15:44:57.536Z,69.3
2023-05-11T16:00:31.655Z,70.5
2023-05-11T16:16:05.806Z,68.5
2023-05-11T16:31:40.476Z,69.6
2023-05-11T16:47:14.866Z,70.1
2023-05-11T17:02:49.595Z,71
2023-05-11T17:18:24.214Z,75.5
2023-05-11T17:33:59.166Z,76.1
2023-05-11T17:49:33.796Z,75.8
2023-05-11T18:05:08.130Z,76.1
2023-05-11T18:20:42.289Z,77.5
2023-05-11T18:36:16.489Z,78.9
2023-05-11T18:51:50.932Z,78.7
2023-05-11T19:07:25.162Z,79.9
2023-05-11T19:22:59.357Z,79.8
2023-05-11T19:38:33.839Z,81.7
2023-05-11T19:54:07.970Z,82.1
2023-05-11T20:09:42.258Z,82.3
2023-05-11T20:25:19.907Z,83.6
2023-05-11T20:40:54.102Z,86.6
2023-05-11T20:56:29.696Z,87
2023-05-11T21:12:03.780Z,89.1
2023-05-11T21:27:37.896Z,90
2023-05-11T21:43:14.801Z,91.7
2023-05-11T21:58:48.885Z,91.9
2023-05-11T22:14:22.948Z,91.8
2023-05-11T22:29:56.843Z,91.4
2023-05-11T22:45:31.297Z,90.8
2023-05-11T23:01:05.560Z,87.7
2023-05-11T23:16:39.773Z,87.9
2023-05-11T23:32:14.001Z,87.6
2023-05-11T23:47:48.433Z,86.8
